WMKM/MKZ METAR and TAF weather

Enter ICAO airport designator
Station Type Date Time Source
WMKM METAR 2024/06/14 20:00 UTC NOAA

WMKM 142000Z VRB01KT 9999 FEW017CB 28/25 Q1008


Station Type Date Time Source
WMKM Decoded METAR 2024/06/14 20:00 UTC NOAA

Malacca, Malaysia (WMKM) 02-16N 102-15E 9M
Jun 14, 2024 - 04:00 PM EDT / 2024.06.14 2000 UTC
Wind: Variable at 1 MPH (1 KT):0
Visibility: greater than 7 mile(s):0
Sky conditions: mostly clear
Weather: Cumulonimbus clouds observed
Temperature: 82 F (28 C)
Dew Point: 77 F (25 C)
Relative Humidity: 83%
Pressure (altimeter): 29.77 in. Hg (1008 hPa)
ob: WMKM 142000Z VRB01KT 9999 FEW017CB 28/25 Q1008
cycle: 20

Station Type Date Time Source
WMKM TAF 2024/06/14 18:00 UTC NOAA